createdAt,value
2022-11-24T00:01:31.434Z,99023.19
2022-11-24T00:03:59.286Z,99026.94
2022-11-24T00:06:26.315Z,99026.84
2022-11-24T00:08:53.413Z,99032.97
2022-11-24T00:11:23.444Z,99027.56
2022-11-24T00:13:50.221Z,99030.88
2022-11-24T00:16:25.096Z,99023.66
2022-11-24T00:18:53.223Z,99013.88
2022-11-24T00:21:20.705Z,99026.09
2022-11-24T00:23:48.761Z,99025.41
2022-11-24T00:26:35.759Z,99033.25
2022-11-24T00:29:04.765Z,99029.66
2022-11-24T00:31:37.181Z,99032.34
2022-11-24T00:34:07.318Z,99034.00
2022-11-24T00:36:35.573Z,99039.91
2022-11-24T00:39:06.425Z,99042.63
2022-11-24T00:41:33.052Z,99041.06
2022-11-24T00:44:00.343Z,99045.53
2022-11-24T00:46:28.186Z,99048.75
2022-11-24T00:48:55.796Z,99054.56
2022-11-24T00:51:24.564Z,99055.88
2022-11-24T00:53:51.144Z,99061.22
2022-11-24T00:56:17.761Z,99060.38
2022-11-24T00:58:44.414Z,99059.38
2022-11-24T01:01:17.033Z,99060.41
2022-11-24T01:03:44.606Z,99062.88
2022-11-24T01:06:14.777Z,99060.50
2022-11-24T01:08:41.968Z,99064.75
2022-11-24T01:11:23.845Z,99073.88
2022-11-24T01:13:54.797Z,99069.31
2022-11-24T01:16:24.279Z,99068.34
2022-11-24T01:18:51.833Z,99066.47
2022-11-24T01:21:19.158Z,99076.78
2022-11-24T01:23:46.377Z,99073.13
2022-11-24T01:26:15.772Z,99072.81
2022-11-24T01:28:47.131Z,99067.03
2022-11-24T01:31:15.201Z,99073.44
2022-11-24T01:33:42.081Z,99074.94
2022-11-24T01:36:08.722Z,99076.75
2022-11-24T01:38:35.334Z,99072.59
2022-11-24T01:41:20.014Z,99077.97
2022-11-24T01:43:47.842Z,99083.56
2022-11-24T01:46:42.350Z,99081.69
2022-11-24T01:49:08.908Z,99084.56
2022-11-24T01:51:45.847Z,99088.03
2022-11-24T01:54:19.778Z,99083.41
2022-11-24T01:56:51.709Z,99089.25
2022-11-24T01:59:21.315Z,99082.25
2022-11-24T02:01:51.537Z,99080.03
2022-11-24T02:04:24.218Z,99086.94
2022-11-24T02:06:52.711Z,99086.31
2022-11-24T02:09:25.410Z,99082.75
2022-11-24T02:11:53.775Z,99084.69
2022-11-24T02:14:22.938Z,99080.09
2022-11-24T02:16:50.964Z,99082.44
2022-11-24T02:19:40.296Z,99082.72
2022-11-24T02:22:22.094Z,99086.03
2022-11-24T02:24:56.511Z,99084.41
2022-11-24T02:27:23.183Z,99076.72
2022-11-24T02:29:49.783Z,99077.41
2022-11-24T02:32:16.903Z,99077.19
2022-11-24T02:34:43.495Z,99081.16
2022-11-24T02:37:10.076Z,99078.13
2022-11-24T02:39:36.736Z,99080.97
2022-11-24T02:42:08.239Z,99073.41
2022-11-24T02:44:39.620Z,99079.53
2022-11-24T02:47:09.085Z,99076.59
2022-11-24T02:49:36.353Z,99078.47
2022-11-24T02:52:03.615Z,99077.56
2022-11-24T02:54:30.372Z,99075.84
2022-11-24T02:56:57.176Z,99082.63
2022-11-24T02:59:24.264Z,99093.31
2022-11-24T03:01:50.981Z,99080.22
2022-11-24T03:04:17.685Z,99083.88
2022-11-24T03:06:44.276Z,99085.72
2022-11-24T03:09:11.059Z,99079.50
2022-11-24T03:11:38.408Z,99085.75
2022-11-24T03:14:05.226Z,99083.78
2022-11-24T03:16:32.819Z,99093.47
2022-11-24T03:18:59.601Z,99092.81
2022-11-24T03:21:26.454Z,99100.47
2022-11-24T03:23:53.793Z,99099.25
2022-11-24T03:26:22.250Z,99109.84
2022-11-24T03:28:48.843Z,99110.03
2022-11-24T03:31:15.638Z,99105.09
2022-11-24T03:33:42.571Z,99106.16
2022-11-24T03:36:09.659Z,99107.25
2022-11-24T03:38:36.300Z,99108.94
2022-11-24T03:41:02.890Z,99113.91
2022-11-24T03:43:30.152Z,99112.47
2022-11-24T03:45:56.765Z,99112.88
2022-11-24T03:48:23.382Z,99114.28
2022-11-24T03:50:58.701Z,99115.16
2022-11-24T03:53:27.346Z,99117.72
2022-11-24T03:55:54.154Z,99115.13
2022-11-24T03:58:20.959Z,99118.44
2022-11-24T04:00:52.502Z,99122.13
2022-11-24T04:03:19.541Z,99120.03
2022-11-24T04:05:46.518Z,99132.25
2022-11-24T04:08:14.333Z,99125.25
2022-11-24T04:10:41.550Z,99131.50
2022-11-24T04:13:15.297Z,99128.59
2022-11-24T04:15:43.109Z,99131.56
2022-11-24T04:18:10.839Z,99140.25
2022-11-24T04:20:37.897Z,99140.06
2022-11-24T04:23:05.098Z,99137.50
2022-11-24T04:25:31.896Z,99148.91
2022-11-24T04:27:58.603Z,99145.63
2022-11-24T04:30:27.061Z,99150.00
2022-11-24T04:32:53.915Z,99157.13
2022-11-24T04:35:20.655Z,99155.44
2022-11-24T04:37:47.580Z,99152.91
2022-11-24T04:40:15.361Z,99164.06
2022-11-24T04:42:42.084Z,99156.16
2022-11-24T04:45:10.524Z,99162.44
2022-11-24T04:47:38.853Z,99169.28
2022-11-24T04:50:06.115Z,99174.47
2022-11-24T04:52:32.808Z,99173.69
2022-11-24T04:54:59.392Z,99181.50
2022-11-24T04:57:27.113Z,99183.13
2022-11-24T04:59:54.541Z,99188.03
2022-11-24T05:02:22.042Z,99190.16
2022-11-24T05:04:48.774Z,99190.09
2022-11-24T05:07:18.737Z,99199.94
2022-11-24T05:09:58.934Z,99199.06
2022-11-24T05:12:27.384Z,99199.91
2022-11-24T05:14:54.032Z,99205.13
2022-11-24T05:17:20.616Z,99206.81
2022-11-24T05:19:47.207Z,99214.56
2022-11-24T05:22:13.875Z,99220.56
2022-11-24T05:24:40.460Z,99224.97
2022-11-24T05:27:07.051Z,99222.28
2022-11-24T05:29:33.740Z,99230.03
2022-11-24T05:32:00.433Z,99225.03
2022-11-24T05:34:27.040Z,99220.50
2022-11-24T05:36:53.862Z,99222.91
2022-11-24T05:39:21.179Z,99227.94
2022-11-24T05:41:47.779Z,99234.97
2022-11-24T05:44:14.452Z,99240.63
2022-11-24T05:46:41.207Z,99249.94
2022-11-24T05:49:07.909Z,99251.81
2022-11-24T05:51:34.505Z,99241.88
2022-11-24T05:54:01.078Z,99250.66
2022-11-24T05:56:27.705Z,99255.78
2022-11-24T05:58:54.341Z,99255.84
2022-11-24T06:01:20.970Z,99255.13
2022-11-24T06:03:47.862Z,99251.63
2022-11-24T06:06:14.457Z,99264.66
2022-11-24T06:08:41.440Z,99270.81
2022-11-24T06:11:09.390Z,99266.22
2022-11-24T06:13:36.019Z,99268.16
2022-11-24T06:16:03.079Z,99267.44
2022-11-24T06:18:29.695Z,99270.00
2022-11-24T06:21:10.132Z,99274.06
2022-11-24T06:23:38.050Z,99272.47
2022-11-24T06:26:05.037Z,99266.44
2022-11-24T06:28:31.816Z,99274.88
2022-11-24T06:31:05.938Z,99272.31
2022-11-24T06:33:37.769Z,99285.19
2022-11-24T06:36:07.600Z,99284.38
2022-11-24T06:38:35.658Z,99292.38
2022-11-24T06:41:07.497Z,99297.56
2022-11-24T06:43:34.675Z,99304.56
2022-11-24T06:46:01.905Z,99305.38
2022-11-24T06:48:29.218Z,99307.03
2022-11-24T06:51:02.750Z,99306.19
2022-11-24T06:53:37.034Z,99304.59
2022-11-24T06:56:09.450Z,99308.84
2022-11-24T06:58:49.224Z,99308.88
2022-11-24T07:01:25.742Z,99318.41
2022-11-24T07:03:53.830Z,99317.25
2022-11-24T07:06:22.575Z,99322.47
2022-11-24T07:08:49.892Z,99327.38
2022-11-24T07:11:19.781Z,99335.34
2022-11-24T07:13:47.276Z,99331.81
2022-11-24T07:16:22.361Z,99344.88
2022-11-24T07:18:50.801Z,99333.50
2022-11-24T07:21:18.074Z,99338.81
2022-11-24T07:23:44.709Z,99348.31
2022-11-24T07:26:11.281Z,99356.06
2022-11-24T07:28:38.857Z,99353.44
2022-11-24T07:31:14.076Z,99362.13
2022-11-24T07:33:41.917Z,99363.16
2022-11-24T07:36:09.517Z,99363.16
2022-11-24T07:38:36.471Z,99370.97
2022-11-24T07:41:04.917Z,99374.09
2022-11-24T07:43:32.438Z,99378.63
2022-11-24T07:45:59.216Z,99376.00
2022-11-24T07:48:25.866Z,99380.25
2022-11-24T07:50:55.710Z,99377.44
2022-11-24T07:53:23.068Z,99381.91
2022-11-24T07:55:54.533Z,99381.03
2022-11-24T07:58:21.245Z,99385.34
2022-11-24T08:00:48.448Z,99391.38
2022-11-24T08:03:15.181Z,99382.66
2022-11-24T08:06:07.713Z,99385.28
2022-11-24T08:08:28.389Z,99391.25
2022-11-24T08:10:54.957Z,99390.44
2022-11-24T08:13:21.558Z,99390.44
2022-11-24T08:15:48.210Z,99399.13
2022-11-24T08:18:14.800Z,99390.44
2022-11-24T08:20:41.403Z,99396.34
2022-11-24T08:23:08.042Z,99400.88
2022-11-24T08:25:34.632Z,99400.84
2022-11-24T08:28:02.775Z,99394.75
2022-11-24T08:30:30.572Z,99408.25
2022-11-24T08:32:59.848Z,99411.72
2022-11-24T08:35:27.015Z,99412.94
2022-11-24T08:37:53.598Z,99410.38
2022-11-24T08:40:20.276Z,99407.59
2022-11-24T08:42:46.887Z,99409.44
2022-11-24T08:45:20.832Z,99412.94
2022-11-24T08:47:52.618Z,99420.63
2022-11-24T08:50:19.211Z,99424.88
2022-11-24T08:52:45.830Z,99425.06
2022-11-24T08:55:12.458Z,99428.25
2022-11-24T08:57:39.062Z,99435.34
2022-11-24T09:00:06.482Z,99430.09
2022-11-24T09:02:33.065Z,99434.34
2022-11-24T09:04:59.711Z,99434.00
2022-11-24T09:07:26.312Z,99433.16
2022-11-24T09:09:52.989Z,99435.59
2022-11-24T09:12:19.584Z,99421.09
2022-11-24T09:14:46.168Z,99430.56
2022-11-24T09:17:12.867Z,99436.41
2022-11-24T09:19:39.500Z,99431.38
2022-11-24T09:22:06.076Z,99436.69
2022-11-24T09:24:32.748Z,99428.75
2022-11-24T09:26:59.338Z,99427.88
2022-11-24T09:29:25.919Z,99432.19
2022-11-24T09:31:52.520Z,99433.94
2022-11-24T09:34:19.124Z,99435.94
2022-11-24T09:36:45.712Z,99437.59
2022-11-24T09:39:12.303Z,99440.28
2022-11-24T09:42:02.088Z,99445.38
2022-11-24T09:44:34.580Z,99444.41
2022-11-24T09:47:38.658Z,99452.25
2022-11-24T09:50:16.693Z,99450.56
2022-11-24T09:52:50.205Z,99442.66
2022-11-24T09:55:29.380Z,99444.31
2022-11-24T09:58:10.633Z,99445.81
2022-11-24T10:00:38.225Z,99449.97
2022-11-24T10:03:05.301Z,99448.78
2022-11-24T10:05:34.716Z,99444.75
2022-11-24T10:08:38.429Z,99444.81
2022-11-24T10:11:13.204Z,99452.22
2022-11-24T10:14:01.166Z,99447.09
2022-11-24T10:17:09.942Z,99444.41
2022-11-24T10:19:48.812Z,99450.69
2022-11-24T10:22:21.536Z,99453.38
2022-11-24T10:25:25.074Z,99444.81
2022-11-24T10:28:18.755Z,99446.47
2022-11-24T10:30:45.428Z,99447.31
2022-11-24T10:33:24.247Z,99440.50
2022-11-24T10:36:11.791Z,99450.06
2022-11-24T10:38:51.368Z,99443.84
2022-11-24T10:41:41.095Z,99443.19
2022-11-24T10:44:13.073Z,99453.63
2022-11-24T10:46:39.931Z,99452.72
2022-11-24T10:49:06.853Z,99454.41
2022-11-24T10:51:46.714Z,99463.03
2022-11-24T10:54:20.757Z,99464.03
2022-11-24T10:56:51.033Z,99468.13
2022-11-24T10:59:30.933Z,99474.09
2022-11-24T11:01:57.917Z,99468.00
2022-11-24T11:04:29.350Z,99479.22
2022-11-24T11:07:19.080Z,99482.81
2022-11-24T11:09:46.970Z,99487.91
2022-11-24T11:12:43.489Z,99485.06
2022-11-24T11:15:33.771Z,99487.63
2022-11-24T11:18:01.292Z,99486.75
2022-11-24T11:20:31.935Z,99486.53
2022-11-24T11:23:01.769Z,99489.34
2022-11-24T11:25:34.210Z,99493.03
2022-11-24T11:28:28.773Z,99498.91
2022-11-24T11:31:21.289Z,99495.84
2022-11-24T11:34:03.727Z,99506.84
2022-11-24T11:36:33.098Z,99503.59
2022-11-24T11:38:59.914Z,99510.50
2022-11-24T11:41:40.713Z,99509.63
2022-11-24T11:44:13.237Z,99507.91
2022-11-24T11:46:39.955Z,99502.63
2022-11-24T11:49:11.948Z,99513.94
2022-11-24T11:52:04.198Z,99503.63
2022-11-24T11:54:52.566Z,99511.31
2022-11-24T11:57:27.551Z,99514.53
2022-11-24T12:00:04.774Z,99518.16
2022-11-24T12:02:46.112Z,99515.63
2022-11-24T12:05:44.921Z,99520.03
2022-11-24T12:08:20.503Z,99518.06
2022-11-24T12:11:41.924Z,99519.78
2022-11-24T12:14:31.207Z,99515.25
2022-11-24T12:17:10.108Z,99520.41
2022-11-24T12:20:17.479Z,99513.59
2022-11-24T12:23:02.871Z,99520.25
2022-11-24T12:25:42.100Z,99519.31
2022-11-24T12:28:23.918Z,99514.88
2022-11-24T12:30:56.518Z,99519.59
2022-11-24T12:33:25.947Z,99520.75
2022-11-24T12:36:03.930Z,99515.38
2022-11-24T12:39:19.900Z,99512.38
2022-11-24T12:42:08.623Z,99517.47
2022-11-24T12:45:11.470Z,99519.78
2022-11-24T12:48:04.253Z,99524.19
2022-11-24T12:50:36.803Z,99526.78
2022-11-24T12:53:14.655Z,99528.69
2022-11-24T12:55:42.751Z,99542.44
2022-11-24T12:58:24.327Z,99528.47
2022-11-24T13:01:14.712Z,99531.28
2022-11-24T13:04:08.006Z,99537.38
2022-11-24T13:06:50.664Z,99541.41
2022-11-24T13:09:17.665Z,99541.09
2022-11-24T13:11:46.399Z,99540.47
2022-11-24T13:14:42.367Z,99533.38
2022-11-24T13:17:38.247Z,99547.09
2022-11-24T13:20:32.278Z,99543.56
2022-11-24T13:23:01.650Z,99531.31
2022-11-24T13:25:32.048Z,99541.13
2022-11-24T13:28:00.462Z,99540.72
2022-11-24T13:30:36.010Z,99536.34
2022-11-24T13:33:16.165Z,99541.53
2022-11-24T13:36:01.821Z,99547.81
2022-11-24T13:38:51.054Z,99558.31
2022-11-24T13:41:33.209Z,99554.00
2022-11-24T13:44:15.326Z,99564.53
2022-11-24T13:47:19.723Z,99564.59
2022-11-24T13:49:46.291Z,99565.69
2022-11-24T13:52:45.611Z,99566.38
2022-11-24T13:55:12.216Z,99574.13
2022-11-24T13:57:41.790Z,99578.84
2022-11-24T14:00:32.561Z,99574.41
2022-11-24T14:03:26.822Z,99578.03
2022-11-24T14:05:53.775Z,99579.47
2022-11-24T14:08:26.330Z,99576.94
2022-11-24T14:10:55.069Z,99582.47
2022-11-24T14:13:32.758Z,99582.56
2022-11-24T14:16:06.056Z,99589.41
2022-11-24T14:18:39.094Z,99593.72
2022-11-24T14:21:23.992Z,99593.94
2022-11-24T14:24:04.975Z,99599.59
2022-11-24T14:26:35.290Z,99599.91
2022-11-24T14:29:22.775Z,99601.53
2022-11-24T14:31:56.450Z,99602.25
2022-11-24T14:34:25.482Z,99601.53
2022-11-24T14:36:53.729Z,99608.66
2022-11-24T14:39:22.810Z,99606.06
2022-11-24T14:42:00.528Z,99611.34
2022-11-24T14:44:49.328Z,99614.84
2022-11-24T14:47:32.642Z,99616.56
2022-11-24T14:50:16.532Z,99617.44
2022-11-24T14:52:54.804Z,99623.63
2022-11-24T14:55:30.124Z,99629.78
2022-11-24T14:57:57.903Z,99635.06
2022-11-24T15:00:24.445Z,99636.75
2022-11-24T15:02:54.235Z,99633.38
2022-11-24T15:05:25.329Z,99639.38
2022-11-24T15:08:01.751Z,99638.75
2022-11-24T15:10:38.478Z,99648.22
2022-11-24T15:13:17.524Z,99645.56
2022-11-24T15:15:50.782Z,99648.38
2022-11-24T15:18:36.585Z,99648.25
2022-11-24T15:21:03.758Z,99654.53
2022-11-24T15:23:34.650Z,99646.41
2022-11-24T15:26:01.161Z,99661.50
2022-11-24T15:28:29.129Z,99662.34
2022-11-24T15:30:59.900Z,99661.25
2022-11-24T15:33:27.810Z,99661.34
2022-11-24T15:35:54.505Z,99661.28
2022-11-24T15:38:21.956Z,99677.19
2022-11-24T15:40:51.151Z,99673.00
2022-11-24T15:43:38.025Z,99682.44
2022-11-24T15:46:06.101Z,99684.00
2022-11-24T15:48:32.676Z,99682.22
2022-11-24T15:51:02.465Z,99685.72
2022-11-24T15:53:39.424Z,99681.31
2022-11-24T15:56:15.970Z,99683.22
2022-11-24T15:58:42.623Z,99681.63
2022-11-24T16:01:09.256Z,99694.13
2022-11-24T16:03:46.744Z,99690.38
2022-11-24T16:06:24.672Z,99690.84
2022-11-24T16:08:55.150Z,99699.94
2022-11-24T16:11:22.529Z,99699.84
2022-11-24T16:13:52.915Z,99705.19
2022-11-24T16:16:22.187Z,99699.19
2022-11-24T16:18:48.799Z,99699.22
2022-11-24T16:21:15.427Z,99705.50
2022-11-24T16:23:42.045Z,99706.44
2022-11-24T16:26:10.050Z,99708.28
2022-11-24T16:28:36.761Z,99704.69
2022-11-24T16:31:03.353Z,99709.06
2022-11-24T16:33:30.314Z,99705.63
2022-11-24T16:35:56.908Z,99700.25
2022-11-24T16:38:23.515Z,99705.59
2022-11-24T16:40:56.612Z,99708.81
2022-11-24T16:43:23.963Z,99719.50
2022-11-24T16:46:15.878Z,99719.50
2022-11-24T16:48:43.500Z,99719.34
2022-11-24T16:51:10.915Z,99729.06
2022-11-24T16:53:38.357Z,99723.97
2022-11-24T16:56:05.568Z,99733.41
2022-11-24T16:58:32.435Z,99735.97
2022-11-24T17:01:25.102Z,99730.88
2022-11-24T17:03:51.778Z,99727.50
2022-11-24T17:06:19.599Z,99736.16
2022-11-24T17:08:47.354Z,99743.03
2022-11-24T17:11:19.774Z,99739.56
2022-11-24T17:13:47.551Z,99740.50
2022-11-24T17:16:16.193Z,99743.13
2022-11-24T17:18:43.481Z,99742.38
2022-11-24T17:21:13.466Z,99744.16
2022-11-24T17:23:40.259Z,99756.28
2022-11-24T17:26:10.845Z,99747.59
2022-11-24T17:28:37.727Z,99748.41
2022-11-24T17:31:13.627Z,99757.19
2022-11-24T17:33:40.197Z,99751.03
2022-11-24T17:36:07.039Z,99753.59
2022-11-24T17:38:33.726Z,99745.00
2022-11-24T17:41:00.453Z,99752.75
2022-11-24T17:43:27.076Z,99752.81
2022-11-24T17:45:55.988Z,99761.59
2022-11-24T17:48:23.431Z,99754.63
2022-11-24T17:51:07.493Z,99766.84
2022-11-24T17:53:36.561Z,99770.28
2022-11-24T17:56:04.554Z,99774.66
2022-11-24T17:58:33.063Z,99782.47
2022-11-24T18:00:59.905Z,99780.72
2022-11-24T18:03:27.508Z,99780.75
2022-11-24T18:06:10.654Z,99787.81
2022-11-24T18:08:39.404Z,99793.84
2022-11-24T18:11:08.372Z,99796.47
2022-11-24T18:13:55.900Z,99792.19
2022-11-24T18:16:21.992Z,99794.75
2022-11-24T18:18:50.233Z,99802.56
2022-11-24T18:21:17.666Z,99807.72
2022-11-24T18:23:44.779Z,99811.31
2022-11-24T18:26:13.682Z,99816.44
2022-11-24T18:28:41.486Z,99816.44
2022-11-24T18:31:10.707Z,99816.41
2022-11-24T18:33:39.146Z,99818.22
2022-11-24T18:36:06.397Z,99813.91
2022-11-24T18:38:35.453Z,99811.31
2022-11-24T18:41:02.356Z,99809.59
2022-11-24T18:43:29.884Z,99819.13
2022-11-24T18:45:57.182Z,99814.78
2022-11-24T18:48:25.562Z,99818.28
2022-11-24T18:50:54.024Z,99830.38
2022-11-24T18:53:21.955Z,99830.47
2022-11-24T18:55:59.082Z,99838.22
2022-11-24T18:58:26.889Z,99844.22
2022-11-24T19:00:54.729Z,99841.63
2022-11-24T19:03:21.405Z,99846.81
2022-11-24T19:05:48.223Z,99852.06
2022-11-24T19:08:14.797Z,99846.84
2022-11-24T19:10:41.819Z,99842.56
2022-11-24T19:13:08.373Z,99850.38
2022-11-24T19:15:35.323Z,99849.47
2022-11-24T19:18:02.203Z,99854.66
2022-11-24T19:20:28.854Z,99862.47
2022-11-24T19:22:55.463Z,99866.03
2022-11-24T19:25:22.081Z,99870.34
2022-11-24T19:27:48.671Z,99883.34
2022-11-24T19:30:16.719Z,99885.94
2022-11-24T19:32:43.292Z,99888.53
2022-11-24T19:35:09.862Z,99892.81
2022-11-24T19:37:37.639Z,99894.59
2022-11-24T19:40:05.442Z,99893.75
2022-11-24T19:42:32.016Z,99902.41
2022-11-24T19:44:58.621Z,99897.19
2022-11-24T19:47:25.308Z,99898.94
2022-11-24T19:49:51.984Z,99899.84
2022-11-24T19:52:18.556Z,99906.75
2022-11-24T19:54:45.206Z,99907.63
2022-11-24T19:57:11.915Z,99911.13
2022-11-24T19:59:38.557Z,99915.47
2022-11-24T20:02:05.317Z,99922.38
2022-11-24T20:04:32.000Z,99924.97
2022-11-24T20:06:58.745Z,99921.50
2022-11-24T20:09:25.413Z,99921.50
2022-11-24T20:11:52.064Z,99926.72
2022-11-24T20:14:18.803Z,99931.06
2022-11-24T20:16:45.739Z,99935.41
2022-11-24T20:19:14.022Z,99937.09
2022-11-24T20:21:41.246Z,99945.78
2022-11-24T20:24:11.515Z,99943.19
2022-11-24T20:26:43.428Z,99950.97
2022-11-24T20:29:11.721Z,99950.13
2022-11-24T20:31:44.958Z,99950.97
2022-11-24T20:34:12.613Z,99957.91
2022-11-24T20:36:41.465Z,99960.47
2022-11-24T20:39:11.972Z,99964.84
2022-11-24T20:41:39.432Z,99967.44
2022-11-24T20:44:09.455Z,99970.06
2022-11-24T20:46:38.318Z,99973.50
2022-11-24T20:49:07.006Z,99973.50
2022-11-24T20:51:36.985Z,99980.47
2022-11-24T20:54:06.900Z,99982.19
2022-11-24T20:56:36.457Z,99986.50
2022-11-24T20:59:04.258Z,99994.28
2022-11-24T21:01:39.730Z,99989.13
2022-11-24T21:04:08.614Z,99988.25
2022-11-24T21:06:35.781Z,99987.41
2022-11-24T21:09:04.135Z,99988.28
2022-11-24T21:11:31.593Z,99981.31
2022-11-24T21:13:58.447Z,99983.91
2022-11-24T21:16:30.918Z,99992.59
2022-11-24T21:19:03.434Z,100006.47
2022-11-24T21:21:33.864Z,100001.28
2022-11-24T21:24:10.957Z,100008.19
2022-11-24T21:26:38.910Z,100003.00
2022-11-24T21:29:06.514Z,100005.56
2022-11-24T21:31:37.940Z,100003.84
2022-11-24T21:34:05.720Z,100007.31
2022-11-24T21:36:32.920Z,100009.03
2022-11-24T21:38:59.607Z,100005.56
2022-11-24T21:41:28.037Z,100001.22
2022-11-24T21:43:55.649Z,100010.72
2022-11-24T21:46:23.052Z,100005.47
2022-11-24T21:48:50.256Z,100005.50
2022-11-24T21:51:18.919Z,100002.91
2022-11-24T21:53:46.256Z,100012.44
2022-11-24T21:56:15.662Z,100011.59
2022-11-24T21:59:02.454Z,100002.00
2022-11-24T22:01:29.200Z,100002.94
2022-11-24T22:03:56.235Z,100011.59
2022-11-24T22:06:22.860Z,100002.03
2022-11-24T22:08:49.865Z,100006.41
2022-11-24T22:11:22.160Z,100002.06
2022-11-24T22:13:50.461Z,100009.00
2022-11-24T22:16:24.521Z,100015.91
2022-11-24T22:18:52.050Z,100019.41
2022-11-24T22:21:23.457Z,100022.81
2022-11-24T22:23:53.223Z,100026.28
2022-11-24T22:26:22.823Z,100029.78
2022-11-24T22:28:50.284Z,100028.91
2022-11-24T22:31:22.932Z,100037.53
2022-11-24T22:33:50.948Z,100041.00
2022-11-24T22:36:19.730Z,100045.38
2022-11-24T22:38:47.258Z,100050.56
2022-11-24T22:41:16.575Z,100057.38
2022-11-24T22:43:45.401Z,100056.47
2022-11-24T22:46:14.294Z,100060.00
2022-11-24T22:48:41.880Z,100054.88
2022-11-24T22:51:11.017Z,100065.25
2022-11-24T22:53:38.265Z,100062.63
2022-11-24T22:56:07.169Z,100053.06
2022-11-24T22:58:33.916Z,100063.50
2022-11-24T23:01:08.925Z,100062.59
2022-11-24T23:03:36.602Z,100068.75
2022-11-24T23:06:11.811Z,100066.03
2022-11-24T23:08:39.083Z,100073.94
2022-11-24T23:11:09.416Z,100074.00
2022-11-24T23:13:36.838Z,100085.31
2022-11-24T23:16:13.078Z,100085.28
2022-11-24T23:18:39.969Z,100089.53
2022-11-24T23:21:27.604Z,100091.34
2022-11-24T23:23:54.461Z,100092.09
2022-11-24T23:26:24.241Z,100088.66
2022-11-24T23:28:51.441Z,100081.72
2022-11-24T23:31:20.363Z,100091.25
2022-11-24T23:33:47.605Z,100097.38
2022-11-24T23:36:18.880Z,100096.56
2022-11-24T23:38:45.746Z,100089.63
2022-11-24T23:41:15.246Z,100098.28
2022-11-24T23:43:42.898Z,100103.44
2022-11-24T23:46:13.178Z,100106.06
2022-11-24T23:48:40.399Z,100102.56
2022-11-24T23:51:08.674Z,100104.31
2022-11-24T23:53:35.947Z,100106.00
2022-11-24T23:56:03.747Z,100102.56
2022-11-24T23:58:30.831Z,100104.25
